sensor_id;sensor_type;location;lat;lon;timestamp;P1;durP1;ratioP1;P2;durP2;ratioP2
62475;SDS011;50739;45.670;11.936;2023-04-25T00:01:56;4.53;;;3.67;;
62475;SDS011;50739;45.670;11.936;2023-04-25T00:07:01;4.28;;;3.53;;
62475;SDS011;50739;45.670;11.936;2023-04-25T00:12:03;4.43;;;3.45;;
62475;SDS011;50739;45.670;11.936;2023-04-25T00:17:05;3.63;;;3.30;;
62475;SDS011;50739;45.670;11.936;2023-04-25T00:22:08;4.53;;;3.42;;
62475;SDS011;50739;45.670;11.936;2023-04-25T00:27:10;4.47;;;3.50;;
62475;SDS011;50739;45.670;11.936;2023-04-25T00:32:12;4.10;;;3.70;;
62475;SDS011;50739;45.670;11.936;2023-04-25T00:37:15;4.82;;;4.25;;
62475;SDS011;50739;45.670;11.936;2023-04-25T00:42:18;5.13;;;4.13;;
62475;SDS011;50739;45.670;11.936;2023-04-25T00:47:20;4.28;;;3.83;;
62475;SDS011;50739;45.670;11.936;2023-04-25T00:52:24;4.53;;;3.47;;
62475;SDS011;50739;45.670;11.936;2023-04-25T00:57:26;4.53;;;3.55;;
62475;SDS011;50739;45.670;11.936;2023-04-25T01:02:28;3.97;;;3.58;;
62475;SDS011;50739;45.670;11.936;2023-04-25T01:07:32;4.27;;;3.80;;
62475;SDS011;50739;45.670;11.936;2023-04-25T01:12:33;4.17;;;3.30;;
62475;SDS011;50739;45.670;11.936;2023-04-25T01:17:35;4.05;;;3.40;;
62475;SDS011;50739;45.670;11.936;2023-04-25T01:22:39;4.53;;;3.42;;
62475;SDS011;50739;45.670;11.936;2023-04-25T01:27:41;4.93;;;3.30;;
62475;SDS011;50739;45.670;11.936;2023-04-25T01:32:43;4.15;;;3.60;;
62475;SDS011;50739;45.670;11.936;2023-04-25T01:37:46;4.70;;;3.60;;
62475;SDS011;50739;45.670;11.936;2023-04-25T01:42:49;4.78;;;3.28;;
62475;SDS011;50739;45.670;11.936;2023-04-25T01:47:51;4.15;;;3.38;;
62475;SDS011;50739;45.670;11.936;2023-04-25T01:52:55;3.75;;;3.40;;
62475;SDS011;50739;45.670;11.936;2023-04-25T01:57:57;3.78;;;3.20;;
62475;SDS011;50739;45.670;11.936;2023-04-25T02:03:00;4.60;;;3.00;;
62475;SDS011;50739;45.670;11.936;2023-04-25T02:08:04;4.05;;;3.20;;
62475;SDS011;50739;45.670;11.936;2023-04-25T02:13:07;3.20;;;2.80;;
62475;SDS011;50739;45.670;11.936;2023-04-25T02:18:08;2.63;;;2.43;;
62475;SDS011;50739;45.670;11.936;2023-04-25T02:23:12;2.35;;;2.05;;
62475;SDS011;50739;45.670;11.936;2023-04-25T02:28:15;2.57;;;2.20;;
62475;SDS011;50739;45.670;11.936;2023-04-25T02:33:17;2.25;;;2.03;;
62475;SDS011;50739;45.670;11.936;2023-04-25T02:38:20;3.80;;;2.00;;
62475;SDS011;50739;45.670;11.936;2023-04-25T02:43:22;2.72;;;2.00;;
62475;SDS011;50739;45.670;11.936;2023-04-25T02:48:24;2.35;;;1.80;;
62475;SDS011;50739;45.670;11.936;2023-04-25T02:53:27;2.00;;;1.80;;
62475;SDS011;50739;45.670;11.936;2023-04-25T02:58:29;1.70;;;1.60;;
62475;SDS011;50739;45.670;11.936;2023-04-25T03:03:30;1.67;;;1.57;;
62475;SDS011;50739;45.670;11.936;2023-04-25T03:08:34;1.73;;;1.60;;
62475;SDS011;50739;45.670;11.936;2023-04-25T03:13:35;2.78;;;1.80;;
62475;SDS011;50739;45.670;11.936;2023-04-25T03:18:37;2.00;;;1.80;;
62475;SDS011;50739;45.670;11.936;2023-04-25T03:23:40;2.00;;;1.70;;
62475;SDS011;50739;45.670;11.936;2023-04-25T03:28:42;1.70;;;1.60;;
62475;SDS011;50739;45.670;11.936;2023-04-25T03:33:44;1.80;;;1.70;;
62475;SDS011;50739;45.670;11.936;2023-04-25T03:38:47;1.50;;;1.40;;
62475;SDS011;50739;45.670;11.936;2023-04-25T03:43:50;1.70;;;1.60;;
62475;SDS011;50739;45.670;11.936;2023-04-25T03:48:51;3.08;;;1.77;;
62475;SDS011;50739;45.670;11.936;2023-04-25T03:53:55;2.80;;;1.80;;
62475;SDS011;50739;45.670;11.936;2023-04-25T03:58:57;3.03;;;1.40;;
62475;SDS011;50739;45.670;11.936;2023-04-25T04:03:58;1.70;;;1.50;;
62475;SDS011;50739;45.670;11.936;2023-04-25T04:09:02;1.88;;;1.60;;
62475;SDS011;50739;45.670;11.936;2023-04-25T04:14:04;2.77;;;1.60;;
62475;SDS011;50739;45.670;11.936;2023-04-25T04:19:06;2.85;;;1.77;;
62475;SDS011;50739;45.670;11.936;2023-04-25T04:24:09;3.17;;;1.65;;
62475;SDS011;50739;45.670;11.936;2023-04-25T04:29:11;1.67;;;1.48;;
62475;SDS011;50739;45.670;11.936;2023-04-25T04:34:20;2.20;;;1.60;;
62475;SDS011;50739;45.670;11.936;2023-04-25T04:39:25;2.75;;;1.90;;
62475;SDS011;50739;45.670;11.936;2023-04-25T04:44:28;2.33;;;1.70;;
62475;SDS011;50739;45.670;11.936;2023-04-25T04:49:32;2.13;;;1.80;;
62475;SDS011;50739;45.670;11.936;2023-04-25T04:54:35;1.90;;;1.70;;
62475;SDS011;50739;45.670;11.936;2023-04-25T04:59:37;3.30;;;1.90;;
62475;SDS011;50739;45.670;11.936;2023-04-25T05:04:39;1.83;;;1.70;;
62475;SDS011;50739;45.670;11.936;2023-04-25T05:09:42;4.07;;;2.20;;
62475;SDS011;50739;45.670;11.936;2023-04-25T05:14:44;3.42;;;2.20;;
62475;SDS011;50739;45.670;11.936;2023-04-25T05:19:46;2.97;;;2.60;;
62475;SDS011;50739;45.670;11.936;2023-04-25T05:24:49;4.97;;;2.90;;
62475;SDS011;50739;45.670;11.936;2023-04-25T05:29:51;4.00;;;2.50;;
62475;SDS011;50739;45.670;11.936;2023-04-25T05:34:53;3.85;;;2.58;;
62475;SDS011;50739;45.670;11.936;2023-04-25T05:39:56;5.00;;;2.72;;
62475;SDS011;50739;45.670;11.936;2023-04-25T05:44:58;4.37;;;3.20;;
62475;SDS011;50739;45.670;11.936;2023-04-25T05:50:00;4.97;;;3.33;;
62475;SDS011;50739;45.670;11.936;2023-04-25T05:55:04;4.93;;;3.63;;
62475;SDS011;50739;45.670;11.936;2023-04-25T06:00:07;5.63;;;3.78;;
62475;SDS011;50739;45.670;11.936;2023-04-25T06:05:10;5.33;;;4.00;;
62475;SDS011;50739;45.670;11.936;2023-04-25T06:10:13;6.65;;;4.70;;
62475;SDS011;50739;45.670;11.936;2023-04-25T06:15:15;6.10;;;4.90;;
62475;SDS011;50739;45.670;11.936;2023-04-25T06:20:17;4.82;;;4.00;;
62475;SDS011;50739;45.670;11.936;2023-04-25T06:25:24;5.18;;;3.47;;
62475;SDS011;50739;45.670;11.936;2023-04-25T06:30:26;4.60;;;3.25;;
62475;SDS011;50739;45.670;11.936;2023-04-25T06:35:28;4.63;;;3.37;;
62475;SDS011;50739;45.670;11.936;2023-04-25T06:40:31;5.35;;;3.40;;
62475;SDS011;50739;45.670;11.936;2023-04-25T06:45:33;5.80;;;3.75;;
62475;SDS011;50739;45.670;11.936;2023-04-25T06:50:35;5.45;;;3.88;;
62475;SDS011;50739;45.670;11.936;2023-04-25T06:55:38;4.20;;;3.80;;
62475;SDS011;50739;45.670;11.936;2023-04-25T07:00:40;4.70;;;4.10;;
62475;SDS011;50739;45.670;11.936;2023-04-25T07:05:42;5.40;;;4.10;;
62475;SDS011;50739;45.670;11.936;2023-04-25T07:10:47;4.80;;;4.17;;
62475;SDS011;50739;45.670;11.936;2023-04-25T07:15:49;5.43;;;4.07;;
62475;SDS011;50739;45.670;11.936;2023-04-25T07:20:51;4.38;;;3.10;;
62475;SDS011;50739;45.670;11.936;2023-04-25T07:25:54;4.67;;;3.17;;
62475;SDS011;50739;45.670;11.936;2023-04-25T07:30:56;3.65;;;3.13;;
62475;SDS011;50739;45.670;11.936;2023-04-25T07:35:58;3.58;;;2.80;;
62475;SDS011;50739;45.670;11.936;2023-04-25T07:41:01;3.53;;;2.50;;
62475;SDS011;50739;45.670;11.936;2023-04-25T07:46:03;5.67;;;2.40;;
62475;SDS011;50739;45.670;11.936;2023-04-25T07:51:05;2.60;;;2.20;;
62475;SDS011;50739;45.670;11.936;2023-04-25T07:56:08;3.30;;;1.90;;
62475;SDS011;50739;45.670;11.936;2023-04-25T08:01:10;3.33;;;1.80;;
62475;SDS011;50739;45.670;11.936;2023-04-25T08:06:12;3.08;;;2.15;;
62475;SDS011;50739;45.670;11.936;2023-04-25T08:11:15;3.60;;;2.17;;
62475;SDS011;50739;45.670;11.936;2023-04-25T08:16:17;7.33;;;4.60;;
62475;SDS011;50739;45.670;11.936;2023-04-25T08:21:19;4.68;;;3.03;;
62475;SDS011;50739;45.670;11.936;2023-04-25T08:26:22;4.13;;;2.77;;
62475;SDS011;50739;45.670;11.936;2023-04-25T08:31:24;4.30;;;3.55;;
62475;SDS011;50739;45.670;11.936;2023-04-25T08:36:26;6.05;;;4.20;;
62475;SDS011;50739;45.670;11.936;2023-04-25T08:41:30;6.75;;;5.28;;
62475;SDS011;50739;45.670;11.936;2023-04-25T08:46:32;7.63;;;5.88;;
62475;SDS011;50739;45.670;11.936;2023-04-25T08:51:35;6.40;;;5.50;;
62475;SDS011;50739;45.670;11.936;2023-04-25T08:56:44;6.57;;;5.22;;
62475;SDS011;50739;45.670;11.936;2023-04-25T09:01:48;4.40;;;4.00;;
62475;SDS011;50739;45.670;11.936;2023-04-25T09:06:51;6.17;;;4.20;;
62475;SDS011;50739;45.670;11.936;2023-04-25T09:11:54;4.53;;;3.88;;
62475;SDS011;50739;45.670;11.936;2023-04-25T09:17:00;5.72;;;4.75;;
62475;SDS011;50739;45.670;11.936;2023-04-25T09:22:03;6.78;;;5.28;;
62475;SDS011;50739;45.670;11.936;2023-04-25T09:27:07;4.10;;;3.50;;
62475;SDS011;50739;45.670;11.936;2023-04-25T09:32:11;1.95;;;1.75;;
62475;SDS011;50739;45.670;11.936;2023-04-25T09:37:18;2.23;;;1.97;;
62475;SDS011;50739;45.670;11.936;2023-04-25T09:42:23;1.75;;;1.20;;
62475;SDS011;50739;45.670;11.936;2023-04-25T09:47:26;1.60;;;1.30;;
62475;SDS011;50739;45.670;11.936;2023-04-25T09:52:28;2.22;;;1.27;;
62475;SDS011;50739;45.670;11.936;2023-04-25T09:57:31;2.08;;;1.30;;
62475;SDS011;50739;45.670;11.936;2023-04-25T10:02:33;2.38;;;1.55;;
62475;SDS011;50739;45.670;11.936;2023-04-25T10:07:36;3.60;;;1.98;;
62475;SDS011;50739;45.670;11.936;2023-04-25T10:12:40;5.63;;;4.50;;
62475;SDS011;50739;45.670;11.936;2023-04-25T10:17:44;3.72;;;2.38;;
62475;SDS011;50739;45.670;11.936;2023-04-25T10:22:46;3.10;;;1.95;;
62475;SDS011;50739;45.670;11.936;2023-04-25T10:27:55;1.23;;;1.00;;
62475;SDS011;50739;45.670;11.936;2023-04-25T10:32:58;1.70;;;1.00;;
62475;SDS011;50739;45.670;11.936;2023-04-25T10:38:02;1.50;;;0.80;;
62475;SDS011;50739;45.670;11.936;2023-04-25T10:48:37;1.02;;;0.70;;
62475;SDS011;50739;45.670;11.936;2023-04-25T10:53:47;0.70;;;0.60;;
62475;SDS011;50739;45.670;11.936;2023-04-25T10:59:06;0.60;;;0.60;;
62475;SDS011;50739;45.670;11.936;2023-04-25T11:04:19;0.90;;;0.65;;
62475;SDS011;50739;45.670;11.936;2023-04-25T11:09:23;0.50;;;0.50;;
62475;SDS011;50739;45.670;11.936;2023-04-25T11:14:27;0.70;;;0.50;;
62475;SDS011;50739;45.670;11.936;2023-04-25T11:19:29;0.60;;;0.60;;
62475;SDS011;50739;45.670;11.936;2023-04-25T11:24:32;1.30;;;1.20;;
62475;SDS011;50739;45.670;11.936;2023-04-25T11:29:36;1.33;;;1.20;;
62475;SDS011;50739;45.670;11.936;2023-04-25T11:34:38;0.80;;;0.80;;
62475;SDS011;50739;45.670;11.936;2023-04-25T11:39:42;0.55;;;0.55;;
62475;SDS011;50739;45.670;11.936;2023-04-25T11:44:47;0.77;;;0.60;;
62475;SDS011;50739;45.670;11.936;2023-04-25T11:49:50;1.40;;;0.80;;
62475;SDS011;50739;45.670;11.936;2023-04-25T11:54:54;1.30;;;0.90;;
62475;SDS011;50739;45.670;11.936;2023-04-25T12:00:05;1.25;;;0.68;;
62475;SDS011;50739;45.670;11.936;2023-04-25T12:05:11;0.70;;;0.60;;
62475;SDS011;50739;45.670;11.936;2023-04-25T12:10:16;0.40;;;0.40;;
62475;SDS011;50739;45.670;11.936;2023-04-25T12:15:24;2.83;;;0.63;;
62475;SDS011;50739;45.670;11.936;2023-04-25T12:20:26;1.08;;;0.80;;
62475;SDS011;50739;45.670;11.936;2023-04-25T12:25:35;0.73;;;0.70;;
62475;SDS011;50739;45.670;11.936;2023-04-25T12:30:55;1.00;;;0.70;;
62475;SDS011;50739;45.670;11.936;2023-04-25T12:35:57;0.80;;;0.80;;
62475;SDS011;50739;45.670;11.936;2023-04-25T12:41:00;1.10;;;0.80;;
62475;SDS011;50739;45.670;11.936;2023-04-25T12:46:03;0.83;;;0.70;;
62475;SDS011;50739;45.670;11.936;2023-04-25T12:51:05;0.93;;;0.60;;
62475;SDS011;50739;45.670;11.936;2023-04-25T12:56:08;0.77;;;0.70;;
62475;SDS011;50739;45.670;11.936;2023-04-25T13:01:11;1.87;;;0.90;;
62475;SDS011;50739;45.670;11.936;2023-04-25T13:06:14;1.27;;;0.90;;
62475;SDS011;50739;45.670;11.936;2023-04-25T13:11:16;1.15;;;0.90;;
62475;SDS011;50739;45.670;11.936;2023-04-25T13:16:19;0.60;;;0.52;;
62475;SDS011;50739;45.670;11.936;2023-04-25T13:21:22;0.50;;;0.50;;
62475;SDS011;50739;45.670;11.936;2023-04-25T13:26:25;1.13;;;0.52;;
62475;SDS011;50739;45.670;11.936;2023-04-25T13:31:28;0.75;;;0.70;;
62475;SDS011;50739;45.670;11.936;2023-04-25T13:36:31;0.88;;;0.70;;
62475;SDS011;50739;45.670;11.936;2023-04-25T13:41:33;1.13;;;0.70;;
62475;SDS011;50739;45.670;11.936;2023-04-25T13:46:37;0.60;;;0.60;;
62475;SDS011;50739;45.670;11.936;2023-04-25T13:51:39;0.70;;;0.70;;
62475;SDS011;50739;45.670;11.936;2023-04-25T13:56:42;0.95;;;0.68;;
62475;SDS011;50739;45.670;11.936;2023-04-25T14:01:45;0.77;;;0.70;;
62475;SDS011;50739;45.670;11.936;2023-04-25T14:06:47;0.50;;;0.45;;
62475;SDS011;50739;45.670;11.936;2023-04-25T14:11:49;0.50;;;0.50;;
62475;SDS011;50739;45.670;11.936;2023-04-25T14:16:54;1.10;;;0.90;;
62475;SDS011;50739;45.670;11.936;2023-04-25T14:21:57;0.80;;;0.63;;
62475;SDS011;50739;45.670;11.936;2023-04-25T14:26:58;1.10;;;0.68;;
62475;SDS011;50739;45.670;11.936;2023-04-25T14:32:02;0.90;;;0.70;;
62475;SDS011;50739;45.670;11.936;2023-04-25T14:37:05;0.55;;;0.55;;
62475;SDS011;50739;45.670;11.936;2023-04-25T14:42:07;0.80;;;0.80;;
62475;SDS011;50739;45.670;11.936;2023-04-25T14:47:10;0.60;;;0.60;;
62475;SDS011;50739;45.670;11.936;2023-04-25T14:52:12;1.00;;;0.60;;
62475;SDS011;50739;45.670;11.936;2023-04-25T14:57:13;1.00;;;0.60;;
62475;SDS011;50739;45.670;11.936;2023-04-25T15:02:17;0.60;;;0.60;;
62475;SDS011;50739;45.670;11.936;2023-04-25T15:07:19;0.95;;;0.80;;
62475;SDS011;50739;45.670;11.936;2023-04-25T15:12:21;0.77;;;0.77;;
62475;SDS011;50739;45.670;11.936;2023-04-25T15:17:24;0.90;;;0.80;;
62475;SDS011;50739;45.670;11.936;2023-04-25T15:22:26;1.10;;;1.00;;
62475;SDS011;50739;45.670;11.936;2023-04-25T15:27:28;1.02;;;0.93;;
62475;SDS011;50739;45.670;11.936;2023-04-25T15:32:32;3.90;;;1.10;;
62475;SDS011;50739;45.670;11.936;2023-04-25T15:37:34;2.20;;;1.30;;
62475;SDS011;50739;45.670;11.936;2023-04-25T15:42:36;2.67;;;1.33;;
62475;SDS011;50739;45.670;11.936;2023-04-25T15:47:39;1.67;;;1.25;;
62475;SDS011;50739;45.670;11.936;2023-04-25T15:52:42;3.70;;;1.40;;
62475;SDS011;50739;45.670;11.936;2023-04-25T15:57:44;1.87;;;1.30;;
62475;SDS011;50739;45.670;11.936;2023-04-25T16:02:48;1.60;;;1.40;;
62475;SDS011;50739;45.670;11.936;2023-04-25T16:07:50;3.90;;;1.37;;
62475;SDS011;50739;45.670;11.936;2023-04-25T16:12:52;2.58;;;1.30;;
62475;SDS011;50739;45.670;11.936;2023-04-25T16:17:56;2.10;;;1.50;;
62475;SDS011;50739;45.670;11.936;2023-04-25T16:22:57;2.65;;;1.50;;
62475;SDS011;50739;45.670;11.936;2023-04-25T16:28:00;2.05;;;1.33;;
62475;SDS011;50739;45.670;11.936;2023-04-25T16:33:03;1.98;;;1.08;;
62475;SDS011;50739;45.670;11.936;2023-04-25T16:38:05;1.40;;;1.30;;
62475;SDS011;50739;45.670;11.936;2023-04-25T16:43:07;1.15;;;1.02;;
62475;SDS011;50739;45.670;11.936;2023-04-25T16:48:10;2.50;;;1.13;;
62475;SDS011;50739;45.670;11.936;2023-04-25T16:53:12;1.10;;;0.90;;
62475;SDS011;50739;45.670;11.936;2023-04-25T16:58:14;0.80;;;0.60;;
62475;SDS011;50739;45.670;11.936;2023-04-25T17:03:17;0.95;;;0.60;;
62475;SDS011;50739;45.670;11.936;2023-04-25T17:08:18;1.75;;;0.90;;
62475;SDS011;50739;45.670;11.936;2023-04-25T17:13:21;1.33;;;1.00;;
62475;SDS011;50739;45.670;11.936;2023-04-25T17:18:24;1.10;;;0.90;;
62475;SDS011;50739;45.670;11.936;2023-04-25T17:23:27;1.40;;;0.90;;
62475;SDS011;50739;45.670;11.936;2023-04-25T17:28:30;1.58;;;1.00;;
62475;SDS011;50739;45.670;11.936;2023-04-25T17:33:33;1.67;;;0.87;;
62475;SDS011;50739;45.670;11.936;2023-04-25T17:38:35;1.90;;;1.20;;
62475;SDS011;50739;45.670;11.936;2023-04-25T17:43:38;2.47;;;1.30;;
62475;SDS011;50739;45.670;11.936;2023-04-25T17:48:41;2.15;;;1.42;;
62475;SDS011;50739;45.670;11.936;2023-04-25T17:53:43;1.98;;;1.30;;
62475;SDS011;50739;45.670;11.936;2023-04-25T17:58:45;3.63;;;1.50;;
62475;SDS011;50739;45.670;11.936;2023-04-25T18:03:48;3.00;;;2.10;;
62475;SDS011;50739;45.670;11.936;2023-04-25T18:08:50;3.17;;;1.60;;
62475;SDS011;50739;45.670;11.936;2023-04-25T18:13:52;1.98;;;1.60;;
62475;SDS011;50739;45.670;11.936;2023-04-25T18:18:55;2.63;;;2.28;;
62475;SDS011;50739;45.670;11.936;2023-04-25T18:24:04;2.35;;;1.90;;
62475;SDS011;50739;45.670;11.936;2023-04-25T18:29:08;2.80;;;2.10;;
62475;SDS011;50739;45.670;11.936;2023-04-25T18:34:13;2.65;;;2.05;;
62475;SDS011;50739;45.670;11.936;2023-04-25T18:39:15;4.05;;;2.70;;
62475;SDS011;50739;45.670;11.936;2023-04-25T18:44:17;4.27;;;2.70;;
62475;SDS011;50739;45.670;11.936;2023-04-25T18:49:20;3.95;;;2.60;;
62475;SDS011;50739;45.670;11.936;2023-04-25T18:54:22;3.25;;;2.72;;
62475;SDS011;50739;45.670;11.936;2023-04-25T18:59:24;4.82;;;2.90;;
62475;SDS011;50739;45.670;11.936;2023-04-25T19:04:33;4.72;;;3.75;;
62475;SDS011;50739;45.670;11.936;2023-04-25T19:09:36;5.10;;;3.60;;
62475;SDS011;50739;45.670;11.936;2023-04-25T19:14:38;8.27;;;4.90;;
62475;SDS011;50739;45.670;11.936;2023-04-25T19:19:41;9.32;;;6.47;;
62475;SDS011;50739;45.670;11.936;2023-04-25T19:24:43;9.53;;;5.83;;
62475;SDS011;50739;45.670;11.936;2023-04-25T19:29:45;7.65;;;4.80;;
62475;SDS011;50739;45.670;11.936;2023-04-25T19:34:48;4.47;;;3.70;;
62475;SDS011;50739;45.670;11.936;2023-04-25T19:39:50;9.57;;;6.77;;
62475;SDS011;50739;45.670;11.936;2023-04-25T19:44:52;8.10;;;5.40;;
62475;SDS011;50739;45.670;11.936;2023-04-25T19:49:55;6.40;;;4.23;;
62475;SDS011;50739;45.670;11.936;2023-04-25T19:54:57;5.80;;;3.83;;
62475;SDS011;50739;45.670;11.936;2023-04-25T20:00:02;5.93;;;4.10;;
62475;SDS011;50739;45.670;11.936;2023-04-25T20:05:09;5.63;;;4.28;;
62475;SDS011;50739;45.670;11.936;2023-04-25T20:10:12;5.82;;;3.95;;
62475;SDS011;50739;45.670;11.936;2023-04-25T20:15:16;7.63;;;4.43;;
62475;SDS011;50739;45.670;11.936;2023-04-25T20:20:19;8.25;;;4.50;;
62475;SDS011;50739;45.670;11.936;2023-04-25T20:25:22;5.57;;;4.25;;
62475;SDS011;50739;45.670;11.936;2023-04-25T20:30:24;6.18;;;4.05;;
62475;SDS011;50739;45.670;11.936;2023-04-25T20:35:27;5.23;;;3.73;;
62475;SDS011;50739;45.670;11.936;2023-04-25T20:40:29;5.47;;;4.05;;
62475;SDS011;50739;45.670;11.936;2023-04-25T20:45:31;6.47;;;4.60;;
62475;SDS011;50739;45.670;11.936;2023-04-25T20:50:34;5.30;;;4.28;;
62475;SDS011;50739;45.670;11.936;2023-04-25T20:55:36;5.45;;;4.50;;
62475;SDS011;50739;45.670;11.936;2023-04-25T21:00:40;4.20;;;3.80;;
62475;SDS011;50739;45.670;11.936;2023-04-25T21:05:44;5.40;;;3.90;;
62475;SDS011;50739;45.670;11.936;2023-04-25T21:10:46;4.23;;;3.67;;
62475;SDS011;50739;45.670;11.936;2023-04-25T21:15:47;6.18;;;3.90;;
62475;SDS011;50739;45.670;11.936;2023-04-25T21:20:52;5.57;;;3.90;;
62475;SDS011;50739;45.670;11.936;2023-04-25T21:25:54;7.40;;;4.97;;
62475;SDS011;50739;45.670;11.936;2023-04-25T21:30:56;4.47;;;3.70;;
62475;SDS011;50739;45.670;11.936;2023-04-25T21:35:59;4.55;;;3.85;;
62475;SDS011;50739;45.670;11.936;2023-04-25T21:41:01;4.50;;;3.90;;
62475;SDS011;50739;45.670;11.936;2023-04-25T21:46:03;5.38;;;3.78;;
62475;SDS011;50739;45.670;11.936;2023-04-25T21:51:06;5.28;;;4.22;;
62475;SDS011;50739;45.670;11.936;2023-04-25T21:56:08;5.10;;;3.90;;
62475;SDS011;50739;45.670;11.936;2023-04-25T22:01:10;4.40;;;3.60;;
62475;SDS011;50739;45.670;11.936;2023-04-25T22:06:13;5.82;;;4.00;;
62475;SDS011;50739;45.670;11.936;2023-04-25T22:11:15;6.05;;;4.70;;
62475;SDS011;50739;45.670;11.936;2023-04-25T22:16:17;4.53;;;4.03;;
62475;SDS011;50739;45.670;11.936;2023-04-25T22:21:20;5.47;;;4.30;;
62475;SDS011;50739;45.670;11.936;2023-04-25T22:26:23;5.75;;;4.30;;
62475;SDS011;50739;45.670;11.936;2023-04-25T22:31:25;4.85;;;3.90;;
62475;SDS011;50739;45.670;11.936;2023-04-25T22:36:29;5.07;;;4.03;;
62475;SDS011;50739;45.670;11.936;2023-04-25T22:41:31;7.03;;;4.35;;
62475;SDS011;50739;45.670;11.936;2023-04-25T22:46:32;4.93;;;4.10;;
62475;SDS011;50739;45.670;11.936;2023-04-25T22:51:36;4.85;;;4.25;;
62475;SDS011;50739;45.670;11.936;2023-04-25T22:56:37;5.93;;;4.35;;
62475;SDS011;50739;45.670;11.936;2023-04-25T23:01:39;5.40;;;4.20;;
62475;SDS011;50739;45.670;11.936;2023-04-25T23:06:43;5.45;;;4.53;;
62475;SDS011;50739;45.670;11.936;2023-04-25T23:11:45;7.20;;;4.40;;
62475;SDS011;50739;45.670;11.936;2023-04-25T23:16:47;6.35;;;4.35;;
62475;SDS011;50739;45.670;11.936;2023-04-25T23:21:50;5.63;;;4.40;;
62475;SDS011;50739;45.670;11.936;2023-04-25T23:26:52;6.87;;;4.90;;
62475;SDS011;50739;45.670;11.936;2023-04-25T23:31:53;7.03;;;4.95;;
62475;SDS011;50739;45.670;11.936;2023-04-25T23:36:57;5.45;;;4.78;;
62475;SDS011;50739;45.670;11.936;2023-04-25T23:42:00;6.72;;;4.82;;
62475;SDS011;50739;45.670;11.936;2023-04-25T23:47:02;6.97;;;5.57;;
62475;SDS011;50739;45.670;11.936;2023-04-25T23:52:05;6.72;;;5.50;;
62475;SDS011;50739;45.670;11.936;2023-04-25T23:57:07;7.75;;;5.60;;
